Time;durP1;ratioP1;P1;durP2;ratioP2;P2;SDS_P1;SDS_P2;PMS_P1;PMS_P2;Temp;Humidity;BMP_temperature;BMP_pressure;BME280_temperature;BME280_humidity;BME280_pressure;Samples;Min_cycle;Max_cycle;Signal;HPM_P1;HPM_P2
2022/04/24 00:00:06;;;;;;;24.50;17.60;;;8.30;99.90;;;;;;5068281;28;20036;-79
2022/04/24 00:02:33;;;;;;;23.35;17.75;;;8.30;99.90;;;;;;5071083;28;20497;-80
2022/04/24 00:04:59;;;;;;;23.50;17.80;;;8.30;99.90;;;;;;5066062;28;20025;-80
2022/04/24 00:07:25;;;;;;;21.92;17.13;;;8.40;99.90;;;;;;5071395;28;20550;-77
2022/04/24 00:09:50;;;;;;;23.60;17.33;;;8.40;99.90;;;;;;5068646;28;20025;-79
2022/04/24 00:12:16;;;;;;;24.60;17.83;;;8.50;99.90;;;;;;5074819;28;20024;-79
2022/04/24 00:14:46;;;;;;;25.30;18.85;;;8.50;99.90;;;;;;5073654;28;20054;-78
2022/04/24 00:17:15;;;;;;;23.52;17.52;;;8.50;99.90;;;;;;5073147;28;20045;-80
2022/04/24 00:19:41;;;;;;;26.60;17.70;;;8.60;99.90;;;;;;5073743;28;20028;-79
2022/04/24 00:22:06;;;;;;;20.92;16.42;;;8.60;99.90;;;;;;5074590;28;20032;-79
2022/04/24 00:24:32;;;;;;;19.88;15.35;;;8.60;99.90;;;;;;5073703;28;20493;-74
2022/04/24 00:26:58;;;;;;;23.50;16.92;;;8.60;99.90;;;;;;5075059;28;20126;-78
2022/04/24 00:29:24;;;;;;;23.33;16.95;;;8.60;99.90;;;;;;5074030;28;20042;-77
2022/04/24 00:31:50;;;;;;;21.60;17.13;;;8.60;99.90;;;;;;5074189;28;20092;-78
2022/04/24 00:34:16;;;;;;;22.60;16.92;;;8.70;99.90;;;;;;5074475;28;20444;-78
2022/04/24 00:36:42;;;;;;;22.45;17.38;;;8.70;99.90;;;;;;5073680;28;20031;-78
2022/04/24 00:39:08;;;;;;;23.10;17.63;;;8.70;99.90;;;;;;5074694;28;20386;-77
2022/04/24 00:41:34;;;;;;;19.75;16.20;;;8.70;99.90;;;;;;5073922;28;20021;-76
2022/04/24 00:43:59;;;;;;;20.90;16.10;;;8.80;99.90;;;;;;5074349;28;20051;-78
2022/04/24 00:46:43;;;;;;;20.42;15.20;;;8.70;99.90;;;;;;5074043;28;20090;-79
2022/04/24 00:49:12;;;;;;;21.55;15.95;;;8.80;99.90;;;;;;5074422;28;20423;-76
2022/04/24 00:51:39;;;;;;;24.60;17.48;;;8.70;99.90;;;;;;5072802;28;20052;-78
2022/04/24 00:54:07;;;;;;;22.98;18.27;;;8.80;99.90;;;;;;5073655;28;20032;-77
2022/04/24 00:56:34;;;;;;;25.83;17.85;;;8.80;99.90;;;;;;5073449;28;20052;-74
2022/04/24 00:59:03;;;;;;;25.35;16.98;;;8.80;99.90;;;;;;5074351;28;20040;-78
2022/04/24 01:01:29;;;;;;;21.23;15.88;;;8.80;99.90;;;;;;5074726;28;20093;-79
2022/04/24 01:04:02;;;;;;;20.85;16.23;;;8.90;99.90;;;;;;5073784;28;20111;-78
2022/04/24 01:06:29;;;;;;;21.50;16.33;;;8.90;99.90;;;;;;5074088;28;20025;-78
2022/04/24 01:08:55;;;;;;;21.98;16.08;;;8.90;99.90;;;;;;5075281;28;20056;-77
2022/04/24 01:11:21;;;;;;;23.65;18.50;;;8.90;99.90;;;;;;5076652;28;20028;-78
2022/04/24 01:13:47;;;;;;;24.30;18.73;;;8.90;99.90;;;;;;5073305;28;20028;-77
2022/04/24 01:16:12;;;;;;;23.98;17.83;;;9.00;99.90;;;;;;5073818;28;20029;-77
2022/04/24 01:18:40;;;;;;;23.58;17.52;;;9.00;99.90;;;;;;5073327;28;20028;-77
2022/04/24 01:21:07;;;;;;;23.17;17.20;;;9.00;99.90;;;;;;5073642;28;20105;-77
2022/04/24 01:23:34;;;;;;;24.23;18.05;;;9.00;99.90;;;;;;5073286;28;20060;-74
2022/04/24 01:25:59;;;;;;;23.70;18.30;;;9.00;99.90;;;;;;5073495;28;20024;-78
2022/04/24 01:28:25;;;;;;;23.90;18.70;;;9.10;99.90;;;;;;5073499;28;20038;-77
2022/04/24 01:30:50;;;;;;;21.83;17.15;;;9.10;99.90;;;;;;5072807;28;20488;-77
2022/04/24 01:33:16;;;;;;;24.13;18.10;;;9.10;99.90;;;;;;5073565;28;20031;-78
2022/04/24 01:35:42;;;;;;;19.88;16.08;;;9.20;99.90;;;;;;5072690;28;20451;-77
2022/04/24 01:38:07;;;;;;;22.73;17.55;;;9.10;99.90;;;;;;5072542;28;20028;-76
2022/04/24 01:40:33;;;;;;;21.25;16.25;;;9.20;99.90;;;;;;5073306;28;20082;-73
2022/04/24 01:42:58;;;;;;;22.95;17.45;;;9.20;99.90;;;;;;5073189;28;20028;-77
2022/04/24 01:45:24;;;;;;;22.23;16.52;;;9.20;99.90;;;;;;5072198;28;20028;-76
2022/04/24 01:47:49;;;;;;;22.30;17.00;;;9.20;99.90;;;;;;5072501;28;20020;-76
2022/04/24 01:50:15;;;;;;;22.38;16.92;;;9.20;99.90;;;;;;5064840;28;20039;-76
2022/04/24 01:52:41;;;;;;;23.67;17.92;;;9.20;99.90;;;;;;5055242;28;20024;-75
2022/04/24 01:55:06;;;;;;;23.50;17.33;;;9.30;99.90;;;;;;5073469;28;20040;-76
2022/04/24 01:57:32;;;;;;;25.15;18.17;;;9.30;99.90;;;;;;5072745;28;20434;-76
2022/04/24 01:59:57;;;;;;;22.67;17.10;;;9.30;99.90;;;;;;5072561;28;20485;-77
2022/04/24 02:02:23;;;;;;;21.33;17.08;;;9.30;99.90;;;;;;5072667;28;20081;-76
2022/04/24 02:04:49;;;;;;;23.30;17.08;;;9.30;99.90;;;;;;5072201;28;20470;-76
2022/04/24 02:07:14;;;;;;;23.73;18.13;;;9.40;99.90;;;;;;5071923;28;20036;-75
2022/04/24 02:09:40;;;;;;;23.90;16.83;;;9.40;99.90;;;;;;5072144;28;20036;-75
2022/04/24 02:12:06;;;;;;;20.20;16.40;;;9.40;99.90;;;;;;5072777;28;20032;-76
2022/04/24 02:14:32;;;;;;;22.70;17.80;;;9.40;99.90;;;;;;5071907;28;20045;-76
2022/04/24 02:16:58;;;;;;;22.75;17.40;;;9.40;99.90;;;;;;5071889;28;20830;-75
2022/04/24 02:19:24;;;;;;;18.88;15.55;;;9.50;99.90;;;;;;5073043;28;20037;-76
2022/04/24 02:21:50;;;;;;;20.25;15.95;;;9.40;99.90;;;;;;5071524;28;20103;-75
2022/04/24 02:24:15;;;;;;;23.42;17.58;;;9.50;99.90;;;;;;5073091;28;20060;-76
2022/04/24 02:26:41;;;;;;;22.70;16.58;;;9.50;99.90;;;;;;5071532;28;20021;-74
2022/04/24 02:29:07;;;;;;;21.95;16.17;;;9.50;99.90;;;;;;5072579;28;20037;-75
2022/04/24 02:31:32;;;;;;;21.52;16.35;;;9.50;99.90;;;;;;5072209;28;20017;-75
2022/04/24 02:33:58;;;;;;;21.27;16.60;;;9.50;99.90;;;;;;5071223;28;20201;-75
2022/04/24 02:36:24;;;;;;;24.85;18.17;;;9.50;99.90;;;;;;5072266;28;20063;-74
2022/04/24 02:38:49;;;;;;;22.65;17.30;;;9.50;99.90;;;;;;5071368;28;20440;-74
2022/04/24 02:41:15;;;;;;;25.38;17.02;;;9.50;99.90;;;;;;5071363;28;20025;-74
2022/04/24 02:43:42;;;;;;;23.88;18.05;;;9.50;99.90;;;;;;5071660;28;20070;-74
2022/04/24 02:46:07;;;;;;;23.30;17.85;;;9.50;99.90;;;;;;5072484;28;20032;-74
2022/04/24 02:48:33;;;;;;;21.63;17.05;;;9.50;99.90;;;;;;5072042;28;20035;-74
2022/04/24 02:50:58;;;;;;;23.55;17.90;;;9.50;99.90;;;;;;5071331;28;20025;-74
2022/04/24 02:53:24;;;;;;;24.40;18.80;;;9.50;99.90;;;;;;5071641;28;20032;-73
2022/04/24 02:55:50;;;;;;;26.23;18.38;;;9.50;99.90;;;;;;5071599;28;20021;-74
2022/04/24 02:58:15;;;;;;;23.75;18.25;;;9.50;99.90;;;;;;5071805;28;20094;-74
2022/04/24 03:00:49;;;;;;;27.10;19.02;;;9.40;99.90;;;;;;5071575;28;20036;-72
2022/04/24 03:03:18;;;;;;;23.45;19.10;;;9.40;99.90;;;;;;5071795;28;20054;-74
2022/04/24 03:05:45;;;;;;;25.38;19.45;;;9.40;99.90;;;;;;5070811;28;20025;-73
2022/04/24 03:08:11;;;;;;;23.67;18.75;;;9.40;99.90;;;;;;5071625;28;20052;-74
2022/04/24 03:10:38;;;;;;;27.10;19.15;;;9.30;99.90;;;;;;5072171;28;20523;-73
2022/04/24 03:13:03;;;;;;;26.75;19.58;;;9.30;99.90;;;;;;5071160;28;20025;-74
2022/04/24 03:15:29;;;;;;;26.90;20.45;;;9.30;99.90;;;;;;5071557;28;20525;-74
2022/04/24 03:17:55;;;;;;;25.40;19.38;;;9.30;99.90;;;;;;5070984;28;20043;-74
2022/04/24 03:20:21;;;;;;;29.92;21.33;;;9.30;99.90;;;;;;5072086;28;20059;-74
2022/04/24 03:22:47;;;;;;;26.73;20.33;;;9.20;99.90;;;;;;5070914;28;20031;-73
2022/04/24 03:25:12;;;;;;;28.52;21.85;;;9.20;99.90;;;;;;5072065;28;20107;-74
2022/04/24 03:27:39;;;;;;;28.98;22.17;;;9.20;99.90;;;;;;5070830;28;20037;-74
2022/04/24 03:30:06;;;;;;;28.55;20.25;;;9.20;99.90;;;;;;5103513;28;20432;-74
2022/04/24 03:32:33;;;;;;;33.65;22.23;;;9.20;99.90;;;;;;5071551;28;20454;-73
2022/04/24 03:34:59;;;;;;;26.58;19.52;;;9.20;99.90;;;;;;5070447;28;20521;-74
2022/04/24 03:37:25;;;;;;;28.73;21.90;;;9.10;99.90;;;;;;5071663;28;20032;-73
2022/04/24 03:39:50;;;;;;;26.23;20.27;;;9.10;99.90;;;;;;5070601;28;20021;-73
2022/04/24 03:42:16;;;;;;;29.15;21.52;;;9.10;99.90;;;;;;5071295;28;20025;-73
2022/04/24 03:44:41;;;;;;;28.23;22.42;;;9.10;99.90;;;;;;5071605;28;20351;-72
2022/04/24 03:47:07;;;;;;;29.50;22.20;;;9.10;99.90;;;;;;5070047;28;20036;-73
2022/04/24 03:49:33;;;;;;;30.63;23.00;;;9.10;99.90;;;;;;5071128;28;20032;-73
2022/04/24 03:51:59;;;;;;;30.40;22.20;;;9.20;99.90;;;;;;5070849;28;20023;-74
2022/04/24 03:54:25;;;;;;;31.52;23.00;;;9.10;99.90;;;;;;5071544;28;20051;-74
2022/04/24 03:56:51;;;;;;;29.55;22.67;;;9.20;99.90;;;;;;5070532;28;20036;-72
2022/04/24 03:59:16;;;;;;;30.60;22.00;;;9.10;99.90;;;;;;5071410;28;20024;-72
2022/04/24 04:01:42;;;;;;;29.95;21.77;;;9.20;99.90;;;;;;5068785;28;20559;-71
2022/04/24 04:04:07;;;;;;;29.15;21.27;;;9.20;99.90;;;;;;5071043;28;20055;-73
2022/04/24 04:06:33;;;;;;;27.17;21.63;;;9.20;99.90;;;;;;5071485;28;20112;-73
2022/04/24 04:08:59;;;;;;;30.02;21.85;;;9.20;99.90;;;;;;5069869;28;20489;-73
2022/04/24 04:11:26;;;;;;;26.35;21.33;;;9.20;99.90;;;;;;5071248;28;20029;-73
2022/04/24 04:13:52;;;;;;;28.65;21.83;;;9.20;99.90;;;;;;5070391;28;20119;-73
2022/04/24 04:16:17;;;;;;;28.15;21.38;;;9.20;99.90;;;;;;5071104;28;20063;-74
2022/04/24 04:18:43;;;;;;;28.02;21.08;;;9.20;99.90;;;;;;5071279;28;20029;-71
2022/04/24 04:21:09;;;;;;;34.35;24.33;;;9.20;99.90;;;;;;5070517;28;20035;-73
2022/04/24 04:23:34;;;;;;;31.40;23.85;;;9.20;99.90;;;;;;5071413;28;20029;-73
2022/04/24 04:26:00;;;;;;;33.33;23.98;;;9.20;99.90;;;;;;5070210;28;20074;-73
2022/04/24 04:28:25;;;;;;;31.42;23.38;;;9.20;99.90;;;;;;5072263;28;20024;-74
2022/04/24 04:30:51;;;;;;;32.53;23.30;;;9.20;99.90;;;;;;5073790;28;20032;-72
2022/04/24 04:33:17;;;;;;;39.60;27.52;;;9.20;99.90;;;;;;5074345;28;20032;-74
2022/04/24 04:35:42;;;;;;;32.80;25.42;;;9.20;99.90;;;;;;5074785;28;20439;-73
2022/04/24 04:38:08;;;;;;;36.78;26.27;;;9.10;99.90;;;;;;5073980;28;20473;-74
2022/04/24 04:40:34;;;;;;;41.75;28.77;;;9.10;99.90;;;;;;5074247;28;20127;-73
2022/04/24 04:42:59;;;;;;;44.47;29.00;;;9.10;99.90;;;;;;5059190;28;20029;-73
2022/04/24 04:45:25;;;;;;;28.98;17.13;;;9.00;99.90;;;;;;5074740;28;20029;-75
2022/04/24 04:47:51;;;;;;;17.35;11.95;;;9.10;99.90;;;;;;5073678;28;20449;-74
2022/04/24 04:50:17;;;;;;;11.43;8.25;;;9.00;99.90;;;;;;5074092;28;20070;-74
2022/04/24 04:52:44;;;;;;;9.40;5.28;;;8.80;99.90;;;;;;5073211;28;20056;-73
2022/04/24 04:55:09;;;;;;;5.78;4.28;;;8.60;99.90;;;;;;5073639;28;20020;-73
2022/04/24 04:57:35;;;;;;;7.30;3.30;;;8.50;99.90;;;;;;5073973;28;20056;-72
2022/04/24 05:00:02;;;;;;;4.45;2.92;;;8.30;99.90;;;;;;5073245;28;20103;-73
2022/04/24 05:02:28;;;;;;;3.80;2.50;;;8.20;99.90;;;;;;5073844;28;20386;-74
2022/04/24 05:04:53;;;;;;;2.00;1.48;;;8.10;99.90;;;;;;5073225;28;20034;-72
2022/04/24 05:07:19;;;;;;;2.63;1.30;;;8.00;99.90;;;;;;5074296;28;20106;-72
2022/04/24 05:09:44;;;;;;;1.77;0.88;;;7.90;99.90;;;;;;5073223;28;20206;-73
2022/04/24 05:12:10;;;;;;;1.75;0.80;;;7.80;99.90;;;;;;5073740;28;20024;-74
2022/04/24 05:14:36;;;;;;;2.00;0.40;;;7.80;99.90;;;;;;5074176;28;20479;-72
2022/04/24 05:17:02;;;;;;;2.03;0.60;;;7.80;99.90;;;;;;5073030;28;20032;-73
2022/04/24 05:19:27;;;;;;;0.40;0.40;;;7.60;99.90;;;;;;5073885;28;20113;-73
2022/04/24 05:21:53;;;;;;;3.65;0.40;;;7.60;99.90;;;;;;5072926;28;20093;-72
2022/04/24 05:24:19;;;;;;;1.40;0.30;;;7.60;99.90;;;;;;5073830;28;20038;-73
2022/04/24 05:26:44;;;;;;;2.00;0.20;;;7.60;99.90;;;;;;5073756;28;20087;-73
2022/04/24 05:29:10;;;;;;;0.20;0.20;;;7.50;99.90;;;;;;5072779;28;20063;-73
2022/04/24 05:31:36;;;;;;;0.93;0.30;;;7.40;99.90;;;;;;5073169;28;20068;-73
2022/04/24 05:34:01;;;;;;;1.35;0.30;;;7.40;99.90;;;;;;5073093;28;20032;-73
2022/04/24 05:36:27;;;;;;;0.65;0.20;;;7.40;99.90;;;;;;5073698;28;20109;-72
2022/04/24 05:38:53;;;;;;;1.27;0.20;;;7.30;99.90;;;;;;5072361;28;20055;-72
2022/04/24 05:41:18;;;;;;;0.82;0.20;;;7.30;99.90;;;;;;5072976;28;20032;-73
2022/04/24 05:43:44;;;;;;;1.00;0.17;;;7.30;99.90;;;;;;5073469;28;20023;-72
2022/04/24 05:46:10;;;;;;;0.70;0.22;;;7.20;99.90;;;;;;5071081;28;20024;-74
2022/04/24 05:48:35;;;;;;;1.20;0.20;;;7.20;99.90;;;;;;5073237;28;20466;-73
2022/04/24 05:51:01;;;;;;;0.45;0.20;;;7.10;99.90;;;;;;5072072;28;20024;-72
2022/04/24 05:53:26;;;;;;;1.38;0.40;;;7.10;99.90;;;;;;5073000;28;20016;-72
2022/04/24 05:55:52;;;;;;;0.22;0.20;;;7.10;99.90;;;;;;5072325;28;20416;-72
2022/04/24 05:58:18;;;;;;;1.38;0.13;;;7.00;99.90;;;;;;5072603;28;20475;-72
2022/04/24 06:00:43;;;;;;;1.45;0.20;;;7.00;99.90;;;;;;5073244;28;20024;-73
2022/04/24 06:03:09;;;;;;;0.43;0.10;;;7.10;99.90;;;;;;5072024;28;20020;-73
2022/04/24 06:05:35;;;;;;;0.30;0.10;;;7.00;99.90;;;;;;5072077;28;20020;-73
2022/04/24 06:08:01;;;;;;;0.28;0.00;;;7.00;99.90;;;;;;5072247;28;20052;-72
2022/04/24 06:10:26;;;;;;;0.70;0.20;;;7.00;99.90;;;;;;5072553;28;20044;-73
2022/04/24 06:12:56;;;;;;;0.40;0.10;;;6.90;99.90;;;;;;5071591;28;20119;-72
2022/04/24 06:15:25;;;;;;;0.65;0.13;;;7.00;99.90;;;;;;5071429;28;20028;-73
2022/04/24 06:17:52;;;;;;;2.00;0.28;;;7.00;99.90;;;;;;5072346;28;20032;-72
2022/04/24 06:20:19;;;;;;;0.40;0.13;;;6.90;99.90;;;;;;5072534;28;20032;-72
2022/04/24 06:22:56;;;;;;;0.22;0.00;;;7.00;99.90;;;;;;5072370;28;20028;-72
2022/04/24 06:25:29;;;;;;;0.28;0.10;;;7.00;99.90;;;;;;5072896;28;20029;-72
2022/04/24 06:27:55;;;;;;;0.08;0.08;;;7.00;99.90;;;;;;5071395;28;20036;-71
2022/04/24 06:30:23;;;;;;;0.75;0.20;;;7.00;99.90;;;;;;5072008;28;20120;-72
2022/04/24 06:32:49;;;;;;;0.15;0.10;;;6.90;99.90;;;;;;5059426;28;20082;-73
2022/04/24 06:35:16;;;;;;;0.75;0.20;;;6.90;99.90;;;;;;5071865;28;20028;-72
2022/04/24 06:37:49;;;;;;;0.13;0.10;;;6.90;99.90;;;;;;5072440;28;20064;-72
2022/04/24 06:40:16;;;;;;;1.23;0.10;;;6.90;99.90;;;;;;5071592;28;20041;-72
2022/04/24 06:42:49;;;;;;;0.10;0.10;;;7.00;99.90;;;;;;5071734;28;20036;-71
2022/04/24 06:45:15;;;;;;;1.20;0.25;;;7.00;99.90;;;;;;5071522;28;20025;-71
2022/04/24 06:47:41;;;;;;;0.15;0.10;;;6.90;99.90;;;;;;5072100;28;20028;-72
2022/04/24 06:50:07;;;;;;;0.90;0.00;;;6.90;99.90;;;;;;5071088;28;20044;-72
2022/04/24 06:52:32;;;;;;;0.10;0.10;;;6.90;99.90;;;;;;5071230;28;20067;-72
2022/04/24 06:55:00;;;;;;;0.75;0.17;;;6.90;99.90;;;;;;5071182;28;20055;-71
2022/04/24 06:57:26;;;;;;;0.20;0.00;;;7.00;99.90;;;;;;5068499;28;20108;-71
2022/04/24 06:59:52;;;;;;;0.30;0.30;;;7.00;99.90;;;;;;5071246;28;20107;-71
2022/04/24 07:02:17;;;;;;;0.25;0.20;;;7.00;99.90;;;;;;5070151;28;20023;-71
2022/04/24 07:04:43;;;;;;;0.10;0.10;;;7.00;99.90;;;;;;5070892;28;20078;-71
2022/04/24 07:07:08;;;;;;;0.10;0.10;;;7.10;99.90;;;;;;5069698;28;20422;-70
2022/04/24 07:09:34;;;;;;;1.55;0.40;;;7.10;99.90;;;;;;5071485;28;20047;-72
2022/04/24 07:12:00;;;;;;;0.52;0.10;;;7.10;99.90;;;;;;5061238;28;20044;-73
2022/04/24 07:14:25;;;;;;;0.43;0.15;;;7.10;99.90;;;;;;5065867;28;20474;-72
2022/04/24 07:16:51;;;;;;;0.10;0.10;;;7.10;99.90;;;;;;5069695;28;20025;-72
2022/04/24 07:19:17;;;;;;;0.20;0.20;;;7.10;99.90;;;;;;5067346;28;20469;-72
2022/04/24 07:21:42;;;;;;;0.10;0.10;;;7.20;99.90;;;;;;5071159;28;20470;-71
2022/04/24 07:24:08;;;;;;;0.30;0.20;;;7.20;99.90;;;;;;5067614;28;20032;-71
2022/04/24 07:26:33;;;;;;;0.10;0.00;;;7.20;99.90;;;;;;5070963;28;20129;-72
2022/04/24 07:28:59;;;;;;;0.38;0.10;;;7.20;99.90;;;;;;5069684;28;20495;-70
2022/04/24 07:31:25;;;;;;;0.10;0.10;;;7.20;99.90;;;;;;5063477;28;20017;-71
2022/04/24 07:33:52;;;;;;;0.52;0.22;;;7.20;99.90;;;;;;5065848;28;20142;-72
2022/04/24 07:36:18;;;;;;;0.65;0.13;;;7.20;99.90;;;;;;5068423;28;20143;-71
2022/04/24 07:38:44;;;;;;;1.05;0.10;;;7.30;99.90;;;;;;5070889;28;20491;-71
2022/04/24 07:41:10;;;;;;;0.45;0.20;;;7.30;99.90;;;;;;5070435;28;20114;-70
2022/04/24 07:43:36;;;;;;;0.70;0.30;;;7.30;99.90;;;;;;5067618;28;20043;-71
2022/04/24 07:46:02;;;;;;;0.50;0.30;;;7.20;99.90;;;;;;5061030;28;20036;-71
2022/04/24 07:48:27;;;;;;;0.40;0.35;;;7.30;99.90;;;;;;5070977;28;20471;-71
2022/04/24 07:50:53;;;;;;;1.77;0.20;;;7.30;99.90;;;;;;5070863;28;20039;-70
2022/04/24 07:53:20;;;;;;;3.35;0.38;;;7.20;99.90;;;;;;5067480;28;20075;-70
2022/04/24 07:55:48;;;;;;;0.85;0.20;;;7.20;99.90;;;;;;5071139;28;20028;-71
2022/04/24 07:58:14;;;;;;;0.85;0.30;;;7.20;99.90;;;;;;5068579;28;20028;-70
2022/04/24 08:00:40;;;;;;;0.40;0.40;;;7.20;99.90;;;;;;5069842;28;20028;-70
2022/04/24 08:03:08;;;;;;;0.10;0.10;;;7.20;99.90;;;;;;5068503;28;20039;-70
2022/04/24 08:05:44;;;;;;;0.75;0.28;;;7.20;99.90;;;;;;5074526;28;20500;-70
2022/04/24 08:08:15;;;;;;;0.57;0.45;;;7.20;99.90;;;;;;5073107;28;20555;-70
2022/04/24 08:10:43;;;;;;;0.95;0.30;;;7.30;99.90;;;;;;5072432;28;20102;-71
2022/04/24 08:13:09;;;;;;;0.82;0.40;;;7.30;99.90;;;;;;5072090;28;20017;-70
2022/04/24 08:15:36;;;;;;;1.75;0.22;;;7.30;99.90;;;;;;5071298;28;20033;-70
2022/04/24 08:18:03;;;;;;;0.20;0.20;;;7.30;99.90;;;;;;5073412;28;20028;-70
2022/04/24 08:20:29;;;;;;;0.50;0.30;;;7.40;99.90;;;;;;5075036;28;20484;-70
2022/04/24 08:22:59;;;;;;;1.02;0.30;;;7.40;99.90;;;;;;5073855;28;20481;-70
2022/04/24 08:25:26;;;;;;;2.38;0.50;;;7.40;99.90;;;;;;5071821;28;20029;-70
2022/04/24 08:27:54;;;;;;;0.40;0.40;;;7.40;99.90;;;;;;5071211;28;20040;-70
2022/04/24 08:30:21;;;;;;;1.20;0.30;;;7.40;99.90;;;;;;5069013;28;20470;-70
2022/04/24 08:32:48;;;;;;;1.05;0.38;;;7.40;99.90;;;;;;5073944;28;20501;-70
2022/04/24 08:35:16;;;;;;;0.77;0.40;;;7.40;99.90;;;;;;5070467;28;20081;-71
2022/04/24 08:37:42;;;;;;;1.33;0.40;;;7.40;99.90;;;;;;5073526;28;20032;-70
2022/04/24 08:40:10;;;;;;;0.90;0.60;;;7.50;99.90;;;;;;5073003;28;20047;-69
2022/04/24 08:42:36;;;;;;;1.17;0.70;;;7.50;99.90;;;;;;5072260;28;20024;-70
2022/04/24 08:45:04;;;;;;;3.15;0.40;;;7.60;99.90;;;;;;5072165;28;20028;-67
2022/04/24 08:47:30;;;;;;;1.80;0.40;;;7.60;99.90;;;;;;5071328;28;20031;-70
2022/04/24 08:50:00;;;;;;;1.10;0.40;;;7.60;99.90;;;;;;5073593;28;20040;-70
2022/04/24 08:52:28;;;;;;;0.50;0.30;;;7.70;99.90;;;;;;5070973;28;20060;-70
2022/04/24 08:54:55;;;;;;;0.77;0.40;;;7.60;99.90;;;;;;5071225;28;20039;-70
2022/04/24 08:57:26;;;;;;;1.23;0.30;;;7.70;99.90;;;;;;5073087;28;20656;-70
2022/04/24 08:59:53;;;;;;;0.52;0.52;;;7.80;99.90;;;;;;5066739;28;20036;-70
2022/04/24 09:02:19;;;;;;;3.28;0.63;;;7.90;99.90;;;;;;5068967;28;20036;-70
2022/04/24 09:04:45;;;;;;;1.02;0.28;;;7.90;99.90;;;;;;5072617;28;20028;-71
2022/04/24 09:07:17;;;;;;;0.85;0.40;;;7.90;99.90;;;;;;5072640;28;20024;-70
2022/04/24 09:09:45;;;;;;;0.93;0.50;;;7.90;99.90;;;;;;5072830;28;20043;-71
2022/04/24 09:12:15;;;;;;;1.00;0.40;;;7.90;99.90;;;;;;5073195;28;20082;-70
2022/04/24 09:14:46;;;;;;;0.70;0.40;;;8.00;99.90;;;;;;5071550;28;20044;-70
2022/04/24 09:17:23;;;;;;;1.55;0.60;;;8.00;99.90;;;;;;5073276;28;20035;-70
2022/04/24 09:19:50;;;;;;;0.50;0.50;;;8.00;99.90;;;;;;5055923;28;20386;-70
2022/04/24 09:22:16;;;;;;;0.70;0.47;;;8.00;99.90;;;;;;5073149;28;20036;-70
2022/04/24 09:24:55;;;;;;;0.98;0.60;;;8.00;99.90;;;;;;5073198;28;20041;-71
2022/04/24 09:27:32;;;;;;;2.05;0.57;;;8.10;99.90;;;;;;5072565;28;20587;-70
2022/04/24 09:30:00;;;;;;;1.00;0.60;;;8.20;99.90;;;;;;5073094;28;20067;-70
2022/04/24 09:32:28;;;;;;;0.75;0.60;;;8.20;99.90;;;;;;5072754;28;20486;-69
2022/04/24 09:34:54;;;;;;;1.60;0.50;;;8.10;99.90;;;;;;5073676;28;20032;-69
2022/04/24 09:37:20;;;;;;;1.48;0.60;;;8.10;99.90;;;;;;5069367;28;20020;-70
2022/04/24 09:39:46;;;;;;;3.38;0.57;;;8.10;99.90;;;;;;5068352;28;20367;-70
2022/04/24 09:42:14;;;;;;;1.20;0.63;;;8.20;99.90;;;;;;5072400;28;20051;-70
2022/04/24 09:44:51;;;;;;;0.65;0.50;;;8.10;99.90;;;;;;5069806;28;20406;-70
2022/04/24 09:47:19;;;;;;;1.48;0.77;;;8.10;99.90;;;;;;5069071;28;20028;-70
2022/04/24 09:49:47;;;;;;;1.67;0.70;;;8.10;99.90;;;;;;5068956;28;20032;-71
2022/04/24 09:52:24;;;;;;;1.77;0.90;;;8.20;99.90;;;;;;5068882;28;20029;-70
2022/04/24 09:54:54;;;;;;;2.47;1.27;;;8.20;99.90;;;;;;5069251;28;20090;-70
2022/04/24 09:57:22;;;;;;;1.73;1.05;;;8.20;99.90;;;;;;5065265;28;20181;-71
2022/04/24 09:59:50;;;;;;;3.20;1.48;;;8.20;99.90;;;;;;5071753;28;20151;-71
2022/04/24 10:02:17;;;;;;;1.70;1.20;;;8.20;99.90;;;;;;5069698;28;20028;-71
2022/04/24 10:04:44;;;;;;;2.33;1.00;;;8.30;99.90;;;;;;5072353;28;20028;-70
2022/04/24 10:07:14;;;;;;;1.75;0.70;;;8.30;99.90;;;;;;5071239;28;20032;-70
2022/04/24 10:09:40;;;;;;;;;;;8.30;99.90;;;;;;5072952;28;20036;-70
2022/04/24 10:12:09;;;;;;;2.03;1.00;;;8.30;99.90;;;;;;5071978;28;19943;-72
2022/04/24 10:14:42;;;;;;;1.17;1.00;;;8.40;99.90;;;;;;5072656;28;20064;-70
2022/04/24 10:17:15;;;;;;;1.60;1.00;;;8.40;99.90;;;;;;5071429;28;20095;-70
2022/04/24 10:20:14;;;;;;;2.78;1.10;;;8.50;99.90;;;;;;5072931;28;20029;-70
2022/04/24 10:22:47;;;;;;;1.20;1.02;;;8.50;99.90;;;;;;5072676;28;20369;-71
2022/04/24 10:25:16;;;;;;;2.65;0.90;;;8.50;99.90;;;;;;5069780;28;20041;-70
2022/04/24 10:27:50;;;;;;;3.10;0.95;;;8.50;99.90;;;;;;5071903;28;20032;-70
2022/04/24 10:30:22;;;;;;;1.77;0.82;;;8.60;99.90;;;;;;5071285;28;20043;-71
2022/04/24 10:32:48;;;;;;;2.85;0.80;;;8.60;99.90;;;;;;5072025;28;20107;-71
2022/04/24 10:35:20;;;;;;;1.08;0.70;;;8.60;99.90;;;;;;5071535;28;20035;-71
2022/04/24 10:37:47;;;;;;;2.08;0.80;;;8.60;99.90;;;;;;5070201;28;20043;-70
2022/04/24 10:40:18;;;;;;;3.33;1.27;;;8.70;99.90;;;;;;5069849;28;20025;-77
2022/04/24 10:42:44;;;;;;;1.90;0.93;;;8.70;99.90;;;;;;5065571;28;20103;-73
2022/04/24 10:45:15;;;;;;;1.23;1.08;;;8.70;99.90;;;;;;5071250;28;20029;-72
2022/04/24 10:47:52;;;;;;;2.58;0.93;;;8.80;99.90;;;;;;5071788;28;20064;-68
2022/04/24 10:50:20;;;;;;;2.10;1.10;;;8.80;99.90;;;;;;5072215;28;20111;-70
2022/04/24 10:52:52;;;;;;;3.08;0.90;;;8.80;99.90;;;;;;5072168;28;20111;-69
2022/04/24 10:55:23;;;;;;;1.13;0.70;;;8.80;99.90;;;;;;5071368;28;20028;-85
2022/04/24 10:57:54;;;;;;;0.73;0.50;;;8.80;99.90;;;;;;5071682;28;20457;-83
2022/04/24 11:00:25;;;;;;;1.60;0.80;;;8.80;99.90;;;;;;5069885;28;20051;-69
2022/04/24 11:02:51;;;;;;;;;;;8.70;99.90;;;;;;5072332;28;20028;-70
2022/04/24 11:05:23;;;;;;;1.65;0.98;;;8.70;99.90;;;;;;5070716;28;19947;-70
2022/04/24 11:08:07;;;;;;;1.20;0.75;;;8.60;99.90;;;;;;5071617;28;20481;-70
2022/04/24 11:10:43;;;;;;;1.42;0.85;;;8.50;99.90;;;;;;5071480;28;20119;-69
2022/04/24 11:13:16;;;;;;;1.20;0.70;;;8.50;99.90;;;;;;5071100;28;20032;-77
2022/04/24 11:15:53;;;;;;;1.83;0.75;;;8.40;99.90;;;;;;5072007;28;20032;-82
2022/04/24 11:18:24;;;;;;;2.33;1.10;;;8.50;99.90;;;;;;5070565;28;20531;-69
2022/04/24 11:20:55;;;;;;;1.10;0.60;;;8.50;99.90;;;;;;5071197;28;20025;-70
2022/04/24 11:23:24;;;;;;;1.13;0.95;;;8.50;99.90;;;;;;5061515;28;20482;-83
2022/04/24 11:25:53;;;;;;;2.20;0.75;;;8.60;99.90;;;;;;5070193;28;20078;-77
2022/04/24 11:28:19;;;;;;;0.75;0.68;;;8.60;99.90;;;;;;5067712;28;20111;-72
2022/04/24 11:30:45;;;;;;;0.65;0.43;;;8.70;99.90;;;;;;5071747;28;20115;-77
2022/04/24 11:33:11;;;;;;;1.95;0.50;;;8.70;99.90;;;;;;5071441;28;20029;-83
2022/04/24 11:35:38;;;;;;;3.88;1.63;;;8.70;99.90;;;;;;5071200;28;20082;-70
2022/04/24 11:38:06;;;;;;;1.63;0.75;;;8.80;99.90;;;;;;5073899;28;20112;-69
2022/04/24 11:40:38;;;;;;;1.60;0.68;;;8.70;99.90;;;;;;5075338;28;20036;-72
2022/04/24 11:43:06;;;;;;;1.10;0.80;;;8.80;99.90;;;;;;5072627;28;20504;-73
2022/04/24 11:51:15;;;;;;;0.95;0.45;;;8.90;99.90;;;;;;5072237;28;20112;-69
2022/04/24 11:53:42;;;;;;;1.88;0.80;;;8.90;99.90;;;;;;5075175;28;20035;-69
2022/04/24 11:56:12;;;;;;;0.80;0.60;;;8.90;99.90;;;;;;5069242;28;20111;-69
2022/04/24 11:58:40;;;;;;;0.93;0.40;;;8.90;99.90;;;;;;5071912;28;20462;-69
2022/04/24 12:01:08;;;;;;;1.33;0.70;;;8.90;99.90;;;;;;5075220;28;20028;-70
2022/04/24 12:03:35;;;;;;;1.00;0.55;;;9.00;99.90;;;;;;5074108;28;20032;-69
2022/04/24 12:06:03;;;;;;;1.50;0.70;;;9.00;99.90;;;;;;5074126;28;20099;-70
2022/04/24 12:08:43;;;;;;;0.68;0.50;;;9.00;99.90;;;;;;5073972;28;20056;-71
2022/04/24 12:11:28;;;;;;;1.33;0.57;;;9.10;99.90;;;;;;5074999;28;20097;-69
2022/04/24 12:14:00;;;;;;;1.88;0.80;;;9.10;99.90;;;;;;5075220;28;20428;-69
2022/04/24 12:16:26;;;;;;;2.25;0.63;;;9.10;99.90;;;;;;5074469;28;20028;-69
2022/04/24 12:18:57;;;;;;;1.33;1.10;;;9.10;99.90;;;;;;5074869;28;20116;-69
2022/04/24 12:21:23;;;;;;;1.42;1.00;;;9.10;99.90;;;;;;5074041;28;20036;-69
2022/04/24 12:23:53;;;;;;;2.10;0.88;;;9.10;99.90;;;;;;5074930;28;20029;-69
2022/04/24 12:26:20;;;;;;;2.75;1.02;;;9.20;99.90;;;;;;5072514;28;20024;-68
2022/04/24 12:28:47;;;;;;;1.25;0.50;;;9.20;99.90;;;;;;5074846;28;20041;-69
2022/04/24 12:31:24;;;;;;;1.85;0.90;;;9.20;99.90;;;;;;5074135;28;20051;-68
2022/04/24 12:33:55;;;;;;;1.05;0.55;;;9.30;99.90;;;;;;5059643;28;20062;-69
2022/04/24 12:36:21;;;;;;;0.95;0.65;;;9.30;99.90;;;;;;5073706;28;20044;-69
2022/04/24 12:38:58;;;;;;;0.90;0.73;;;9.30;99.90;;;;;;5073974;28;20044;-69
2022/04/24 12:41:27;;;;;;;1.02;0.70;;;9.40;99.90;;;;;;5071196;28;20027;-69
2022/04/24 12:43:54;;;;;;;1.23;0.60;;;9.40;99.90;;;;;;5062939;28;20028;-69
2022/04/24 12:46:20;;;;;;;0.45;0.45;;;9.50;99.90;;;;;;5073798;28;20029;-68
2022/04/24 12:48:51;;;;;;;1.05;0.45;;;9.60;99.90;;;;;;5073151;28;20036;-69
2022/04/24 12:51:17;;;;;;;0.70;0.55;;;9.60;99.90;;;;;;5073323;28;20473;-69
2022/04/24 12:53:44;;;;;;;1.15;0.68;;;9.60;99.90;;;;;;5058228;28;20021;-69
2022/04/24 12:56:10;;;;;;;1.40;0.60;;;9.60;99.90;;;;;;5074277;28;20051;-69